Peoria, IL

7:58 AM CST on December 21, 2014 (GMT -0600)
Central Ill Regional | Change Station
CLOSE
Current Station
Airport
Location: Bloomington,
Elevation: 869 ft
Nearby Weather Stations

Elev 869 ft 40.48 °N, 88.91 °W | Updated 1 hour ago

Overcast
Overcast
32 °F
Feels Like 25 °F
N
8
Wind Variable Wind from SSE

Today
High -- | Low -- °F
--% Chance of Precip.
Yesterday
High -- | Low -- °F
Precip. -- in
7:18 AM 4:34 PM
Waning Crescent, 0% visible
Pressure 30.27 in
Visibility 5.0 miles
Clouds Overcast 3300 ft
Windchill 25 °F
Dew Point 30 °F
Humidity 92%
Rainfall 0.00 in
Snow Depth Not available.
UV 0 out of 12
Pollen .10 out of 12
Air Quality Not available.
Flu Activity Not available.
METAR KBMI 211256Z 15007KT 5SM BR OVC033 00/M01 A3022 RMK AO2 T00001011 SLP249

More Conditions Fewer Conditions

Pressure 30.27 in
Visibility 5.0 miles
Clouds Overcast 3300 ft
Windchill 25 °F
Dew Point 30 °F
Humidity 92%
Rainfall 0.00 in
Snow Depth Not available.
UV 0 out of 12
Pollen .10 out of 12
Air Quality Not available.
Flu Activity Not available.
METAR KBMI 211256Z 15007KT 5SM BR OVC033 00/M01 A3022 RMK AO2 T00001011 SLP249

More Conditions Fewer Conditions

10-Day Weather Forecast

Almanac

Astronomy

Dec. 21, 2014 Rise Set
Actual Time
Civil Twilight
Nautical Twilight
Astronomical Twilight
Moon
Length of Visible Light
Length of Day
Tomorrow will be .
, % of the Moon is Illuminated

Today's Extremes

State Highs State Lows

Community

WunderPhotos

Upload Photos

1,779,386 photos uploaded!

WunderBlogs® & News

Nearby

Air Quality

  Air Quality AQ Index Pollutant
Not available.

Snow Depth

Station Depth Elevation

Earthquake Activity

City Distance Mag. Time & Date
Minimum magnitude displayed is 2.5.

Coastal Water Temperatures

Place Temperature

Nearby Weather Stations